sensor_id;sensor_type;location;lat;lon;timestamp;P1;durP1;ratioP1;P2;durP2;ratioP2
49730;SDS011;35622;52.008;5.426;2022-08-20T00:02:24;10.20;;;6.55;;
49730;SDS011;35622;52.008;5.426;2022-08-20T00:04:50;10.15;;;6.90;;
49730;SDS011;35622;52.008;5.426;2022-08-20T00:07:16;7.18;;;4.90;;
49730;SDS011;35622;52.008;5.426;2022-08-20T00:09:42;10.43;;;6.03;;
49730;SDS011;35622;52.008;5.426;2022-08-20T00:12:11;12.10;;;6.55;;
49730;SDS011;35622;52.008;5.426;2022-08-20T00:14:39;8.60;;;5.90;;
49730;SDS011;35622;52.008;5.426;2022-08-20T00:17:05;8.98;;;5.60;;
49730;SDS011;35622;52.008;5.426;2022-08-20T00:19:31;10.75;;;7.47;;
49730;SDS011;35622;52.008;5.426;2022-08-20T00:21:57;10.35;;;7.07;;
49730;SDS011;35622;52.008;5.426;2022-08-20T00:24:23;10.80;;;6.50;;
49730;SDS011;35622;52.008;5.426;2022-08-20T00:26:51;10.07;;;7.72;;
49730;SDS011;35622;52.008;5.426;2022-08-20T00:29:16;9.80;;;7.13;;
49730;SDS011;35622;52.008;5.426;2022-08-20T00:31:42;13.93;;;7.00;;
49730;SDS011;35622;52.008;5.426;2022-08-20T00:34:08;12.80;;;6.28;;
49730;SDS011;35622;52.008;5.426;2022-08-20T00:36:33;9.82;;;6.70;;
49730;SDS011;35622;52.008;5.426;2022-08-20T00:38:59;12.55;;;7.07;;
49730;SDS011;35622;52.008;5.426;2022-08-20T00:41:25;11.45;;;6.13;;
49730;SDS011;35622;52.008;5.426;2022-08-20T00:44:03;11.02;;;6.45;;
49730;SDS011;35622;52.008;5.426;2022-08-20T00:46:34;8.57;;;5.78;;
49730;SDS011;35622;52.008;5.426;2022-08-20T00:49:03;13.32;;;6.60;;
49730;SDS011;35622;52.008;5.426;2022-08-20T00:51:36;15.32;;;9.18;;
49730;SDS011;35622;52.008;5.426;2022-08-20T00:56:42;17.42;;;10.48;;
49730;SDS011;35622;52.008;5.426;2022-08-20T00:59:15;13.88;;;9.52;;
49730;SDS011;35622;52.008;5.426;2022-08-20T01:01:45;17.27;;;11.20;;
49730;SDS011;35622;52.008;5.426;2022-08-20T01:04:11;18.05;;;12.00;;
49730;SDS011;35622;52.008;5.426;2022-08-20T01:06:37;12.95;;;9.20;;
49730;SDS011;35622;52.008;5.426;2022-08-20T01:09:04;15.07;;;9.50;;
49730;SDS011;35622;52.008;5.426;2022-08-20T01:11:30;11.93;;;8.55;;
49730;SDS011;35622;52.008;5.426;2022-08-20T01:13:59;17.92;;;9.43;;
49730;SDS011;35622;52.008;5.426;2022-08-20T01:16:37;14.15;;;9.25;;
49730;SDS011;35622;52.008;5.426;2022-08-20T01:19:03;13.73;;;8.73;;
49730;SDS011;35622;52.008;5.426;2022-08-20T01:21:28;16.63;;;9.32;;
49730;SDS011;35622;52.008;5.426;2022-08-20T01:26:41;18.95;;;11.57;;
49730;SDS011;35622;52.008;5.426;2022-08-20T01:29:11;13.13;;;9.88;;
49730;SDS011;35622;52.008;5.426;2022-08-20T01:31:40;16.75;;;10.23;;
49730;SDS011;35622;52.008;5.426;2022-08-20T01:34:08;18.38;;;11.15;;
49730;SDS011;35622;52.008;5.426;2022-08-20T01:39:09;17.83;;;11.93;;
49730;SDS011;35622;52.008;5.426;2022-08-20T01:44:09;17.73;;;11.55;;
49730;SDS011;35622;52.008;5.426;2022-08-20T01:46:38;14.77;;;10.25;;
49730;SDS011;35622;52.008;5.426;2022-08-20T01:49:10;20.40;;;11.30;;
49730;SDS011;35622;52.008;5.426;2022-08-20T01:51:38;12.98;;;9.35;;
49730;SDS011;35622;52.008;5.426;2022-08-20T01:54:05;16.58;;;10.50;;
49730;SDS011;35622;52.008;5.426;2022-08-20T01:56:32;17.63;;;11.43;;
49730;SDS011;35622;52.008;5.426;2022-08-20T01:58:59;18.17;;;11.00;;
49730;SDS011;35622;52.008;5.426;2022-08-20T02:01:28;14.55;;;9.63;;
49730;SDS011;35622;52.008;5.426;2022-08-20T02:03:58;16.15;;;10.73;;
49730;SDS011;35622;52.008;5.426;2022-08-20T02:06:31;17.63;;;11.88;;
49730;SDS011;35622;52.008;5.426;2022-08-20T02:08:59;18.83;;;10.48;;
49730;SDS011;35622;52.008;5.426;2022-08-20T02:11:27;16.27;;;9.93;;
49730;SDS011;35622;52.008;5.426;2022-08-20T02:13:56;20.52;;;14.65;;
49730;SDS011;35622;52.008;5.426;2022-08-20T02:16:23;18.23;;;12.75;;
49730;SDS011;35622;52.008;5.426;2022-08-20T02:18:55;16.10;;;11.40;;
49730;SDS011;35622;52.008;5.426;2022-08-20T02:21:24;16.45;;;10.60;;
49730;SDS011;35622;52.008;5.426;2022-08-20T02:23:53;18.05;;;11.90;;
49730;SDS011;35622;52.008;5.426;2022-08-20T02:26:19;15.75;;;11.27;;
49730;SDS011;35622;52.008;5.426;2022-08-20T02:28:47;19.05;;;13.45;;
49730;SDS011;35622;52.008;5.426;2022-08-20T02:31:18;14.85;;;11.52;;
49730;SDS011;35622;52.008;5.426;2022-08-20T02:33:47;16.75;;;12.13;;
49730;SDS011;35622;52.008;5.426;2022-08-20T02:36:14;17.60;;;11.98;;
49730;SDS011;35622;52.008;5.426;2022-08-20T02:38:44;19.63;;;12.98;;
49730;SDS011;35622;52.008;5.426;2022-08-20T02:41:11;18.40;;;12.50;;
49730;SDS011;35622;52.008;5.426;2022-08-20T02:43:37;19.33;;;12.10;;
49730;SDS011;35622;52.008;5.426;2022-08-20T02:46:04;14.30;;;10.52;;
49730;SDS011;35622;52.008;5.426;2022-08-20T02:48:31;28.25;;;12.43;;
49730;SDS011;35622;52.008;5.426;2022-08-20T02:50:58;19.15;;;14.57;;
49730;SDS011;35622;52.008;5.426;2022-08-20T02:53:26;21.50;;;14.38;;
49730;SDS011;35622;52.008;5.426;2022-08-20T02:55:53;26.95;;;15.30;;
49730;SDS011;35622;52.008;5.426;2022-08-20T02:58:20;21.67;;;15.13;;
49730;SDS011;35622;52.008;5.426;2022-08-20T03:00:46;22.17;;;15.50;;
49730;SDS011;35622;52.008;5.426;2022-08-20T03:03:13;21.13;;;14.70;;
49730;SDS011;35622;52.008;5.426;2022-08-20T03:05:41;22.45;;;16.25;;
49730;SDS011;35622;52.008;5.426;2022-08-20T03:08:09;21.45;;;15.70;;
49730;SDS011;35622;52.008;5.426;2022-08-20T03:10:37;25.55;;;15.55;;
49730;SDS011;35622;52.008;5.426;2022-08-20T03:13:05;28.23;;;17.33;;
49730;SDS011;35622;52.008;5.426;2022-08-20T03:15:35;21.38;;;14.80;;
49730;SDS011;35622;52.008;5.426;2022-08-20T03:18:01;18.63;;;13.43;;
49730;SDS011;35622;52.008;5.426;2022-08-20T03:20:27;22.80;;;14.30;;
49730;SDS011;35622;52.008;5.426;2022-08-20T03:22:53;19.40;;;13.85;;
49730;SDS011;35622;52.008;5.426;2022-08-20T03:25:20;19.55;;;13.57;;
49730;SDS011;35622;52.008;5.426;2022-08-20T03:27:46;19.63;;;13.43;;
49730;SDS011;35622;52.008;5.426;2022-08-20T03:30:13;17.50;;;12.00;;
49730;SDS011;35622;52.008;5.426;2022-08-20T03:32:40;17.52;;;12.77;;
49730;SDS011;35622;52.008;5.426;2022-08-20T03:35:10;17.02;;;11.20;;
49730;SDS011;35622;52.008;5.426;2022-08-20T03:37:39;19.23;;;13.30;;
49730;SDS011;35622;52.008;5.426;2022-08-20T03:40:06;20.05;;;13.80;;
49730;SDS011;35622;52.008;5.426;2022-08-20T03:42:42;16.77;;;12.15;;
49730;SDS011;35622;52.008;5.426;2022-08-20T03:45:08;17.80;;;12.45;;
49730;SDS011;35622;52.008;5.426;2022-08-20T03:47:40;17.65;;;12.13;;
49730;SDS011;35622;52.008;5.426;2022-08-20T03:50:07;16.83;;;12.48;;
49730;SDS011;35622;52.008;5.426;2022-08-20T03:52:36;21.02;;;13.60;;
49730;SDS011;35622;52.008;5.426;2022-08-20T03:55:03;16.85;;;11.95;;
49730;SDS011;35622;52.008;5.426;2022-08-20T03:57:32;19.20;;;12.63;;
49730;SDS011;35622;52.008;5.426;2022-08-20T03:59:58;15.02;;;10.85;;
49730;SDS011;35622;52.008;5.426;2022-08-20T04:02:23;18.75;;;12.77;;
49730;SDS011;35622;52.008;5.426;2022-08-20T04:04:50;18.58;;;12.80;;
49730;SDS011;35622;52.008;5.426;2022-08-20T04:07:17;17.10;;;12.23;;
49730;SDS011;35622;52.008;5.426;2022-08-20T04:09:58;18.40;;;12.50;;
49730;SDS011;35622;52.008;5.426;2022-08-20T04:12:24;23.38;;;12.77;;
49730;SDS011;35622;52.008;5.426;2022-08-20T04:14:51;17.83;;;13.23;;
49730;SDS011;35622;52.008;5.426;2022-08-20T04:17:17;16.48;;;11.15;;
49730;SDS011;35622;52.008;5.426;2022-08-20T04:19:44;21.52;;;12.13;;
49730;SDS011;35622;52.008;5.426;2022-08-20T04:22:10;12.07;;;9.60;;
49730;SDS011;35622;52.008;5.426;2022-08-20T04:24:39;16.10;;;11.75;;
49730;SDS011;35622;52.008;5.426;2022-08-20T04:27:07;14.25;;;11.20;;
49730;SDS011;35622;52.008;5.426;2022-08-20T04:29:33;16.52;;;10.50;;
49730;SDS011;35622;52.008;5.426;2022-08-20T04:32:01;19.08;;;11.48;;
49730;SDS011;35622;52.008;5.426;2022-08-20T04:34:30;14.95;;;11.82;;
49730;SDS011;35622;52.008;5.426;2022-08-20T04:36:55;16.08;;;11.43;;
49730;SDS011;35622;52.008;5.426;2022-08-20T04:39:21;14.90;;;10.75;;
49730;SDS011;35622;52.008;5.426;2022-08-20T04:41:47;19.77;;;12.18;;
49730;SDS011;35622;52.008;5.426;2022-08-20T04:44:13;13.63;;;11.35;;
49730;SDS011;35622;52.008;5.426;2022-08-20T04:46:39;15.77;;;10.82;;
49730;SDS011;35622;52.008;5.426;2022-08-20T04:49:06;13.75;;;10.57;;
49730;SDS011;35622;52.008;5.426;2022-08-20T04:51:34;13.68;;;9.48;;
49730;SDS011;35622;52.008;5.426;2022-08-20T04:54:00;14.38;;;9.80;;
49730;SDS011;35622;52.008;5.426;2022-08-20T04:56:27;12.35;;;9.45;;
49730;SDS011;35622;52.008;5.426;2022-08-20T04:58:56;11.88;;;7.43;;
49730;SDS011;35622;52.008;5.426;2022-08-20T05:01:24;28.38;;;8.63;;
49730;SDS011;35622;52.008;5.426;2022-08-20T05:03:51;15.88;;;8.60;;
49730;SDS011;35622;52.008;5.426;2022-08-20T05:06:22;15.98;;;9.88;;
49730;SDS011;35622;52.008;5.426;2022-08-20T05:08:53;16.25;;;10.05;;
49730;SDS011;35622;52.008;5.426;2022-08-20T05:11:20;25.70;;;10.85;;
49730;SDS011;35622;52.008;5.426;2022-08-20T05:13:46;27.52;;;11.18;;
49730;SDS011;35622;52.008;5.426;2022-08-20T05:16:12;10.95;;;8.88;;
49730;SDS011;35622;52.008;5.426;2022-08-20T05:18:41;13.60;;;10.13;;
49730;SDS011;35622;52.008;5.426;2022-08-20T05:21:08;10.68;;;9.30;;
49730;SDS011;35622;52.008;5.426;2022-08-20T05:23:37;12.15;;;9.57;;
49730;SDS011;35622;52.008;5.426;2022-08-20T05:26:07;13.50;;;9.75;;
49730;SDS011;35622;52.008;5.426;2022-08-20T05:28:34;13.88;;;10.05;;
49730;SDS011;35622;52.008;5.426;2022-08-20T05:31:02;12.32;;;9.13;;
49730;SDS011;35622;52.008;5.426;2022-08-20T05:33:31;14.85;;;10.13;;
49730;SDS011;35622;52.008;5.426;2022-08-20T05:35:57;18.85;;;10.90;;
49730;SDS011;35622;52.008;5.426;2022-08-20T05:38:24;14.02;;;10.18;;
49730;SDS011;35622;52.008;5.426;2022-08-20T05:40:52;10.00;;;8.93;;
49730;SDS011;35622;52.008;5.426;2022-08-20T05:43:17;9.55;;;8.30;;
49730;SDS011;35622;52.008;5.426;2022-08-20T05:45:44;10.10;;;8.35;;
49730;SDS011;35622;52.008;5.426;2022-08-20T05:48:12;9.52;;;8.60;;
49730;SDS011;35622;52.008;5.426;2022-08-20T05:50:40;9.95;;;8.45;;
49730;SDS011;35622;52.008;5.426;2022-08-20T05:53:07;9.98;;;7.55;;
49730;SDS011;35622;52.008;5.426;2022-08-20T05:55:34;8.75;;;7.85;;
49730;SDS011;35622;52.008;5.426;2022-08-20T05:58:02;10.68;;;8.82;;
49730;SDS011;35622;52.008;5.426;2022-08-20T06:00:30;10.65;;;8.60;;
49730;SDS011;35622;52.008;5.426;2022-08-20T06:02:57;10.52;;;8.43;;
49730;SDS011;35622;52.008;5.426;2022-08-20T06:05:42;8.57;;;7.30;;
49730;SDS011;35622;52.008;5.426;2022-08-20T06:08:09;7.95;;;7.25;;
49730;SDS011;35622;52.008;5.426;2022-08-20T06:10:36;6.50;;;5.80;;
49730;SDS011;35622;52.008;5.426;2022-08-20T06:13:05;7.28;;;5.18;;
49730;SDS011;35622;52.008;5.426;2022-08-20T06:15:31;5.78;;;5.18;;
49730;SDS011;35622;52.008;5.426;2022-08-20T06:17:57;6.35;;;5.72;;
49730;SDS011;35622;52.008;5.426;2022-08-20T06:20:23;5.93;;;5.32;;
49730;SDS011;35622;52.008;5.426;2022-08-20T06:22:50;5.97;;;5.47;;
49730;SDS011;35622;52.008;5.426;2022-08-20T06:25:15;6.88;;;5.78;;
49730;SDS011;35622;52.008;5.426;2022-08-20T06:27:41;6.57;;;5.88;;
49730;SDS011;35622;52.008;5.426;2022-08-20T06:30:08;5.32;;;4.93;;
49730;SDS011;35622;52.008;5.426;2022-08-20T06:32:35;6.85;;;5.07;;
49730;SDS011;35622;52.008;5.426;2022-08-20T06:35:01;6.68;;;5.03;;
49730;SDS011;35622;52.008;5.426;2022-08-20T06:37:30;5.90;;;5.38;;
49730;SDS011;35622;52.008;5.426;2022-08-20T06:40:17;7.85;;;5.30;;
49730;SDS011;35622;52.008;5.426;2022-08-20T06:42:46;5.82;;;5.25;;
49730;SDS011;35622;52.008;5.426;2022-08-20T06:45:12;6.65;;;4.50;;
49730;SDS011;35622;52.008;5.426;2022-08-20T06:47:41;7.07;;;4.55;;
49730;SDS011;35622;52.008;5.426;2022-08-20T06:50:10;7.90;;;2.97;;
49730;SDS011;35622;52.008;5.426;2022-08-20T06:52:43;6.80;;;2.13;;
49730;SDS011;35622;52.008;5.426;2022-08-20T06:55:11;6.18;;;2.75;;
49730;SDS011;35622;52.008;5.426;2022-08-20T06:57:37;5.85;;;2.60;;
49730;SDS011;35622;52.008;5.426;2022-08-20T07:00:09;7.05;;;2.13;;
49730;SDS011;35622;52.008;5.426;2022-08-20T07:02:39;6.85;;;1.95;;
49730;SDS011;35622;52.008;5.426;2022-08-20T07:05:05;4.85;;;2.50;;
49730;SDS011;35622;52.008;5.426;2022-08-20T07:07:32;6.13;;;2.35;;
49730;SDS011;35622;52.008;5.426;2022-08-20T07:10:05;5.45;;;2.30;;
49730;SDS011;35622;52.008;5.426;2022-08-20T07:12:33;4.47;;;2.15;;
49730;SDS011;35622;52.008;5.426;2022-08-20T07:15:00;4.63;;;1.92;;
49730;SDS011;35622;52.008;5.426;2022-08-20T07:17:30;4.78;;;2.08;;
49730;SDS011;35622;52.008;5.426;2022-08-20T07:19:55;6.97;;;2.22;;
49730;SDS011;35622;52.008;5.426;2022-08-20T07:22:21;3.85;;;1.60;;
49730;SDS011;35622;52.008;5.426;2022-08-20T07:24:48;5.03;;;1.73;;
49730;SDS011;35622;52.008;5.426;2022-08-20T07:27:18;6.45;;;2.03;;
49730;SDS011;35622;52.008;5.426;2022-08-20T07:29:45;5.47;;;1.85;;
49730;SDS011;35622;52.008;5.426;2022-08-20T07:32:30;6.95;;;1.90;;
49730;SDS011;35622;52.008;5.426;2022-08-20T07:34:59;6.80;;;2.10;;
49730;SDS011;35622;52.008;5.426;2022-08-20T07:37:25;6.72;;;1.92;;
49730;SDS011;35622;52.008;5.426;2022-08-20T07:39:50;6.43;;;2.15;;
49730;SDS011;35622;52.008;5.426;2022-08-20T07:42:17;4.78;;;1.65;;
49730;SDS011;35622;52.008;5.426;2022-08-20T07:44:42;5.32;;;1.80;;
49730;SDS011;35622;52.008;5.426;2022-08-20T07:47:08;5.97;;;1.70;;
49730;SDS011;35622;52.008;5.426;2022-08-20T07:49:37;5.47;;;2.05;;
49730;SDS011;35622;52.008;5.426;2022-08-20T07:52:04;6.97;;;1.80;;
49730;SDS011;35622;52.008;5.426;2022-08-20T07:54:30;4.85;;;1.60;;
49730;SDS011;35622;52.008;5.426;2022-08-20T07:56:59;4.90;;;1.60;;
49730;SDS011;35622;52.008;5.426;2022-08-20T07:59:29;4.30;;;1.65;;
49730;SDS011;35622;52.008;5.426;2022-08-20T08:01:56;5.80;;;1.52;;
49730;SDS011;35622;52.008;5.426;2022-08-20T08:04:23;5.93;;;1.75;;
49730;SDS011;35622;52.008;5.426;2022-08-20T08:06:49;4.78;;;1.55;;
49730;SDS011;35622;52.008;5.426;2022-08-20T08:09:16;8.50;;;1.55;;
49730;SDS011;35622;52.008;5.426;2022-08-20T08:11:44;6.28;;;1.75;;
49730;SDS011;35622;52.008;5.426;2022-08-20T08:14:14;5.03;;;1.73;;
49730;SDS011;35622;52.008;5.426;2022-08-20T08:16:47;6.03;;;1.60;;
49730;SDS011;35622;52.008;5.426;2022-08-20T08:19:13;6.35;;;1.60;;
49730;SDS011;35622;52.008;5.426;2022-08-20T08:21:41;6.07;;;1.73;;
49730;SDS011;35622;52.008;5.426;2022-08-20T08:24:08;5.03;;;1.50;;
49730;SDS011;35622;52.008;5.426;2022-08-20T08:26:35;4.07;;;1.50;;
49730;SDS011;35622;52.008;5.426;2022-08-20T08:29:02;6.25;;;1.85;;
49730;SDS011;35622;52.008;5.426;2022-08-20T08:31:31;7.82;;;2.10;;
49730;SDS011;35622;52.008;5.426;2022-08-20T08:33:57;6.97;;;1.90;;
49730;SDS011;35622;52.008;5.426;2022-08-20T08:36:23;5.72;;;1.85;;
49730;SDS011;35622;52.008;5.426;2022-08-20T08:38:51;6.22;;;1.70;;
49730;SDS011;35622;52.008;5.426;2022-08-20T08:44:03;4.65;;;1.50;;
49730;SDS011;35622;52.008;5.426;2022-08-20T08:46:45;6.35;;;1.90;;
49730;SDS011;35622;52.008;5.426;2022-08-20T08:49:17;5.63;;;1.95;;
49730;SDS011;35622;52.008;5.426;2022-08-20T08:51:58;6.05;;;1.70;;
49730;SDS011;35622;52.008;5.426;2022-08-20T08:54:34;4.72;;;1.98;;
49730;SDS011;35622;52.008;5.426;2022-08-20T08:57:01;8.48;;;1.52;;
49730;SDS011;35622;52.008;5.426;2022-08-20T08:59:28;6.95;;;1.77;;
49730;SDS011;35622;52.008;5.426;2022-08-20T09:01:55;3.80;;;1.75;;
49730;SDS011;35622;52.008;5.426;2022-08-20T09:04:26;6.72;;;1.83;;
49730;SDS011;35622;52.008;5.426;2022-08-20T09:06:57;7.75;;;1.80;;
49730;SDS011;35622;52.008;5.426;2022-08-20T09:09:30;4.45;;;2.15;;
49730;SDS011;35622;52.008;5.426;2022-08-20T09:12:06;4.22;;;1.60;;
49730;SDS011;35622;52.008;5.426;2022-08-20T09:14:34;7.10;;;2.00;;
49730;SDS011;35622;52.008;5.426;2022-08-20T09:17:00;4.88;;;1.95;;
49730;SDS011;35622;52.008;5.426;2022-08-20T09:19:26;6.30;;;2.10;;
49730;SDS011;35622;52.008;5.426;2022-08-20T09:21:52;5.78;;;2.05;;
49730;SDS011;35622;52.008;5.426;2022-08-20T09:24:17;6.68;;;1.63;;
49730;SDS011;35622;52.008;5.426;2022-08-20T09:26:43;6.25;;;1.80;;
49730;SDS011;35622;52.008;5.426;2022-08-20T09:29:09;5.00;;;1.98;;
49730;SDS011;35622;52.008;5.426;2022-08-20T09:31:35;5.35;;;1.73;;
49730;SDS011;35622;52.008;5.426;2022-08-20T09:34:02;6.38;;;1.88;;
49730;SDS011;35622;52.008;5.426;2022-08-20T09:36:28;7.57;;;1.98;;
49730;SDS011;35622;52.008;5.426;2022-08-20T09:38:53;5.38;;;1.83;;
49730;SDS011;35622;52.008;5.426;2022-08-20T09:41:19;5.97;;;1.95;;
49730;SDS011;35622;52.008;5.426;2022-08-20T09:43:45;5.55;;;1.85;;
49730;SDS011;35622;52.008;5.426;2022-08-20T09:46:11;6.55;;;1.70;;
49730;SDS011;35622;52.008;5.426;2022-08-20T09:48:36;7.25;;;2.10;;
49730;SDS011;35622;52.008;5.426;2022-08-20T09:51:03;6.18;;;1.80;;
49730;SDS011;35622;52.008;5.426;2022-08-20T09:53:28;4.97;;;1.60;;
49730;SDS011;35622;52.008;5.426;2022-08-20T09:55:55;5.07;;;1.73;;
49730;SDS011;35622;52.008;5.426;2022-08-20T09:58:29;4.22;;;1.63;;
49730;SDS011;35622;52.008;5.426;2022-08-20T10:01:00;6.20;;;1.77;;
49730;SDS011;35622;52.008;5.426;2022-08-20T10:03:38;5.40;;;1.75;;
49730;SDS011;35622;52.008;5.426;2022-08-20T10:06:04;6.55;;;1.92;;
49730;SDS011;35622;52.008;5.426;2022-08-20T10:08:30;6.45;;;1.95;;
49730;SDS011;35622;52.008;5.426;2022-08-20T10:10:56;6.18;;;1.83;;
49730;SDS011;35622;52.008;5.426;2022-08-20T10:13:21;6.72;;;1.80;;
49730;SDS011;35622;52.008;5.426;2022-08-20T10:15:47;5.93;;;1.83;;
49730;SDS011;35622;52.008;5.426;2022-08-20T10:18:13;6.90;;;2.00;;
49730;SDS011;35622;52.008;5.426;2022-08-20T10:20:38;6.68;;;2.00;;
49730;SDS011;35622;52.008;5.426;2022-08-20T10:23:04;5.47;;;2.08;;
49730;SDS011;35622;52.008;5.426;2022-08-20T10:25:30;6.50;;;1.58;;
49730;SDS011;35622;52.008;5.426;2022-08-20T10:27:56;6.28;;;1.85;;
49730;SDS011;35622;52.008;5.426;2022-08-20T10:30:22;5.18;;;2.00;;
49730;SDS011;35622;52.008;5.426;2022-08-20T10:32:48;5.35;;;2.00;;
49730;SDS011;35622;52.008;5.426;2022-08-20T10:35:13;4.65;;;1.60;;
49730;SDS011;35622;52.008;5.426;2022-08-20T10:37:39;5.68;;;1.92;;
49730;SDS011;35622;52.008;5.426;2022-08-20T10:40:05;4.53;;;1.50;;
49730;SDS011;35622;52.008;5.426;2022-08-20T10:42:31;4.85;;;1.65;;
49730;SDS011;35622;52.008;5.426;2022-08-20T10:44:57;5.82;;;1.75;;
49730;SDS011;35622;52.008;5.426;2022-08-20T10:47:24;6.15;;;1.60;;
49730;SDS011;35622;52.008;5.426;2022-08-20T10:49:57;5.35;;;1.77;;
49730;SDS011;35622;52.008;5.426;2022-08-20T10:52:23;6.18;;;1.83;;
49730;SDS011;35622;52.008;5.426;2022-08-20T10:54:51;6.38;;;2.20;;
49730;SDS011;35622;52.008;5.426;2022-08-20T10:57:18;7.40;;;2.17;;
49730;SDS011;35622;52.008;5.426;2022-08-20T10:59:52;6.38;;;1.80;;
49730;SDS011;35622;52.008;5.426;2022-08-20T11:02:19;8.10;;;1.83;;
49730;SDS011;35622;52.008;5.426;2022-08-20T11:04:45;5.88;;;2.15;;
49730;SDS011;35622;52.008;5.426;2022-08-20T11:09:42;5.82;;;1.60;;
49730;SDS011;35622;52.008;5.426;2022-08-20T11:12:09;6.28;;;1.60;;
49730;SDS011;35622;52.008;5.426;2022-08-20T11:14:35;7.57;;;2.20;;
49730;SDS011;35622;52.008;5.426;2022-08-20T11:17:01;5.75;;;1.77;;
49730;SDS011;35622;52.008;5.426;2022-08-20T11:19:28;6.78;;;1.70;;
49730;SDS011;35622;52.008;5.426;2022-08-20T11:21:55;6.10;;;1.88;;
49730;SDS011;35622;52.008;5.426;2022-08-20T11:24:21;5.72;;;1.90;;
49730;SDS011;35622;52.008;5.426;2022-08-20T11:26:47;5.60;;;1.77;;
49730;SDS011;35622;52.008;5.426;2022-08-20T11:29:17;5.15;;;1.52;;
49730;SDS011;35622;52.008;5.426;2022-08-20T11:31:44;7.03;;;1.60;;
49730;SDS011;35622;52.008;5.426;2022-08-20T11:34:10;5.15;;;1.48;;
49730;SDS011;35622;52.008;5.426;2022-08-20T11:36:36;5.40;;;1.63;;
49730;SDS011;35622;52.008;5.426;2022-08-20T11:39:02;5.00;;;1.60;;
49730;SDS011;35622;52.008;5.426;2022-08-20T11:41:28;7.13;;;1.80;;
49730;SDS011;35622;52.008;5.426;2022-08-20T11:43:54;6.10;;;1.83;;
49730;SDS011;35622;52.008;5.426;2022-08-20T11:46:19;6.80;;;1.70;;
49730;SDS011;35622;52.008;5.426;2022-08-20T11:48:45;5.82;;;1.58;;
49730;SDS011;35622;52.008;5.426;2022-08-20T11:51:11;5.35;;;1.75;;
49730;SDS011;35622;52.008;5.426;2022-08-20T11:53:36;4.93;;;1.65;;
49730;SDS011;35622;52.008;5.426;2022-08-20T11:56:02;8.43;;;1.73;;
49730;SDS011;35622;52.008;5.426;2022-08-20T11:58:28;9.43;;;1.98;;
49730;SDS011;35622;52.008;5.426;2022-08-20T12:00:53;8.27;;;2.10;;
49730;SDS011;35622;52.008;5.426;2022-08-20T12:03:20;6.82;;;2.13;;
49730;SDS011;35622;52.008;5.426;2022-08-20T12:05:46;6.40;;;2.00;;
49730;SDS011;35622;52.008;5.426;2022-08-20T12:08:12;7.43;;;2.22;;
49730;SDS011;35622;52.008;5.426;2022-08-20T12:10:41;8.38;;;2.00;;
49730;SDS011;35622;52.008;5.426;2022-08-20T12:13:07;6.30;;;2.00;;
49730;SDS011;35622;52.008;5.426;2022-08-20T12:15:34;6.53;;;1.85;;
49730;SDS011;35622;52.008;5.426;2022-08-20T12:18:04;7.40;;;1.90;;
49730;SDS011;35622;52.008;5.426;2022-08-20T12:20:34;7.65;;;2.00;;
49730;SDS011;35622;52.008;5.426;2022-08-20T12:23:01;5.85;;;1.60;;
49730;SDS011;35622;52.008;5.426;2022-08-20T12:25:28;6.78;;;1.70;;
49730;SDS011;35622;52.008;5.426;2022-08-20T12:27:54;8.52;;;2.00;;
49730;SDS011;35622;52.008;5.426;2022-08-20T12:30:21;7.20;;;2.17;;
49730;SDS011;35622;52.008;5.426;2022-08-20T12:32:48;6.28;;;2.10;;
49730;SDS011;35622;52.008;5.426;2022-08-20T12:35:15;6.05;;;2.15;;
49730;SDS011;35622;52.008;5.426;2022-08-20T12:37:42;6.75;;;1.75;;
49730;SDS011;35622;52.008;5.426;2022-08-20T12:40:10;6.80;;;2.22;;
49730;SDS011;35622;52.008;5.426;2022-08-20T12:42:38;5.32;;;1.73;;
49730;SDS011;35622;52.008;5.426;2022-08-20T12:45:04;6.40;;;2.10;;
49730;SDS011;35622;52.008;5.426;2022-08-20T12:47:35;6.60;;;2.00;;
49730;SDS011;35622;52.008;5.426;2022-08-20T12:50:11;6.43;;;2.08;;
49730;SDS011;35622;52.008;5.426;2022-08-20T12:52:45;12.77;;;4.07;;
49730;SDS011;35622;52.008;5.426;2022-08-20T12:55:13;7.07;;;3.08;;
49730;SDS011;35622;52.008;5.426;2022-08-20T12:57:41;7.13;;;2.30;;
49730;SDS011;35622;52.008;5.426;2022-08-20T13:00:17;10.07;;;2.47;;
49730;SDS011;35622;52.008;5.426;2022-08-20T13:02:59;7.82;;;2.25;;
49730;SDS011;35622;52.008;5.426;2022-08-20T13:05:26;6.13;;;2.20;;
49730;SDS011;35622;52.008;5.426;2022-08-20T13:07:54;5.32;;;2.10;;
49730;SDS011;35622;52.008;5.426;2022-08-20T13:10:24;10.10;;;2.30;;
49730;SDS011;35622;52.008;5.426;2022-08-20T13:12:57;7.13;;;2.00;;
49730;SDS011;35622;52.008;5.426;2022-08-20T13:15:25;8.30;;;2.17;;
49730;SDS011;35622;52.008;5.426;2022-08-20T13:17:55;6.13;;;2.03;;
49730;SDS011;35622;52.008;5.426;2022-08-20T13:20:23;6.05;;;2.20;;
49730;SDS011;35622;52.008;5.426;2022-08-20T13:25:26;5.38;;;1.80;;
49730;SDS011;35622;52.008;5.426;2022-08-20T13:27:56;7.47;;;1.85;;
49730;SDS011;35622;52.008;5.426;2022-08-20T13:30:23;8.27;;;2.40;;
49730;SDS011;35622;52.008;5.426;2022-08-20T13:32:49;7.80;;;2.13;;
49730;SDS011;35622;52.008;5.426;2022-08-20T13:35:15;7.60;;;1.98;;
49730;SDS011;35622;52.008;5.426;2022-08-20T13:37:41;7.05;;;1.80;;
49730;SDS011;35622;52.008;5.426;2022-08-20T13:40:07;10.35;;;2.10;;
49730;SDS011;35622;52.008;5.426;2022-08-20T13:42:33;6.68;;;1.73;;
49730;SDS011;35622;52.008;5.426;2022-08-20T13:44:59;6.75;;;2.00;;
49730;SDS011;35622;52.008;5.426;2022-08-20T13:47:32;10.57;;;1.80;;
49730;SDS011;35622;52.008;5.426;2022-08-20T13:50:04;7.10;;;1.90;;
49730;SDS011;35622;52.008;5.426;2022-08-20T13:52:31;6.63;;;2.00;;
49730;SDS011;35622;52.008;5.426;2022-08-20T13:54:57;7.63;;;1.75;;
49730;SDS011;35622;52.008;5.426;2022-08-20T13:57:23;7.88;;;1.90;;
49730;SDS011;35622;52.008;5.426;2022-08-20T13:59:50;6.70;;;1.85;;
49730;SDS011;35622;52.008;5.426;2022-08-20T14:02:18;6.22;;;1.55;;
49730;SDS011;35622;52.008;5.426;2022-08-20T14:04:44;5.90;;;1.85;;
49730;SDS011;35622;52.008;5.426;2022-08-20T14:07:13;9.82;;;2.25;;
49730;SDS011;35622;52.008;5.426;2022-08-20T14:09:39;7.00;;;1.73;;
49730;SDS011;35622;52.008;5.426;2022-08-20T14:12:06;7.22;;;1.50;;
49730;SDS011;35622;52.008;5.426;2022-08-20T14:14:33;9.00;;;1.85;;
49730;SDS011;35622;52.008;5.426;2022-08-20T14:16:58;5.95;;;1.52;;
49730;SDS011;35622;52.008;5.426;2022-08-20T14:19:24;7.53;;;1.50;;
49730;SDS011;35622;52.008;5.426;2022-08-20T14:21:49;7.95;;;2.15;;
49730;SDS011;35622;52.008;5.426;2022-08-20T14:24:15;6.40;;;1.75;;
49730;SDS011;35622;52.008;5.426;2022-08-20T14:26:40;6.88;;;1.80;;
49730;SDS011;35622;52.008;5.426;2022-08-20T14:29:06;5.07;;;1.60;;
49730;SDS011;35622;52.008;5.426;2022-08-20T14:31:31;8.98;;;1.98;;
49730;SDS011;35622;52.008;5.426;2022-08-20T14:33:57;7.65;;;1.98;;
49730;SDS011;35622;52.008;5.426;2022-08-20T14:36:22;9.45;;;2.15;;
49730;SDS011;35622;52.008;5.426;2022-08-20T14:38:48;6.28;;;2.20;;
49730;SDS011;35622;52.008;5.426;2022-08-20T14:41:13;5.55;;;2.03;;
49730;SDS011;35622;52.008;5.426;2022-08-20T14:43:39;4.20;;;1.63;;
49730;SDS011;35622;52.008;5.426;2022-08-20T14:46:04;8.43;;;2.20;;
49730;SDS011;35622;52.008;5.426;2022-08-20T14:48:30;6.35;;;2.30;;
49730;SDS011;35622;52.008;5.426;2022-08-20T14:50:55;6.05;;;2.20;;
49730;SDS011;35622;52.008;5.426;2022-08-20T14:53:23;8.57;;;2.67;;
49730;SDS011;35622;52.008;5.426;2022-08-20T14:55:48;5.28;;;2.17;;
49730;SDS011;35622;52.008;5.426;2022-08-20T14:58:14;5.53;;;1.63;;
49730;SDS011;35622;52.008;5.426;2022-08-20T15:00:41;5.22;;;2.00;;